Time;durP1;ratioP1;P1;durP2;ratioP2;P2;SDS_P1;SDS_P2;PMS_P1;PMS_P2;Temp;Humidity;BMP_temperature;BMP_pressure;BME280_temperature;BME280_humidity;BME280_pressure;Samples;Min_cycle;Max_cycle;Signal;HPM_P1;HPM_P2
2023/03/28 00:00:47;;;;;;;2.38;2.17;;;3.30;99.90;;;;;;5006721;28;20199;-65
2023/03/28 00:03:17;;;;;;;4.03;2.50;;;3.50;99.90;;;;;;5003825;28;20193;-65
2023/03/28 00:05:47;;;;;;;3.55;2.53;;;2.70;99.90;;;;;;5007034;28;20192;-66
2023/03/28 00:08:14;;;;;;;4.03;2.50;;;3.00;99.90;;;;;;5009115;28;20188;-65
2023/03/28 00:10:39;;;;;;;2.72;2.42;;;2.90;99.90;;;;;;5009405;28;20268;-65
2023/03/28 00:13:05;;;;;;;4.17;2.80;;;3.00;99.90;;;;;;5008677;28;20193;-65
2023/03/28 00:15:31;;;;;;;3.13;2.33;;;3.00;99.90;;;;;;5009223;28;20434;-65
2023/03/28 00:17:59;;;;;;;3.70;2.70;;;3.10;99.90;;;;;;5011884;28;20481;-65
2023/03/28 00:20:26;;;;;;;4.78;2.60;;;2.80;99.90;;;;;;5011584;28;20453;-65
2023/03/28 00:22:53;;;;;;;3.38;2.80;;;2.40;99.90;;;;;;5012678;28;20708;-65
2023/03/28 00:25:19;;;;;;;2.38;2.17;;;3.00;99.90;;;;;;5010893;28;20203;-65
2023/03/28 00:27:45;;;;;;;2.72;2.10;;;2.80;99.90;;;;;;5011638;28;20194;-65
2023/03/28 00:30:11;;;;;;;2.60;2.40;;;3.00;99.90;;;;;;5010896;28;20231;-65
2023/03/28 00:32:37;;;;;;;3.65;2.22;;;3.00;99.90;;;;;;5012018;28;20386;-65
2023/03/28 00:35:03;;;;;;;4.93;2.57;;;2.70;99.90;;;;;;5008055;28;20191;-65
2023/03/28 00:37:30;;;;;;;3.20;2.40;;;3.20;99.90;;;;;;5012289;28;20173;-65
2023/03/28 00:39:56;;;;;;;2.55;2.35;;;3.20;99.90;;;;;;5010714;28;20225;-65
2023/03/28 00:42:24;;;;;;;2.88;2.58;;;3.00;99.90;;;;;;5011358;28;20265;-65
2023/03/28 00:44:52;;;;;;;2.97;2.25;;;3.10;99.90;;;;;;5012339;28;20274;-65
2023/03/28 00:47:26;;;;;;;2.97;2.67;;;2.90;99.90;;;;;;5012535;28;20181;-65
2023/03/28 00:50:19;;;;;;;2.90;2.70;;;3.10;99.90;;;;;;5011970;28;20221;-65
2023/03/28 00:52:53;;;;;;;3.75;2.50;;;3.00;99.90;;;;;;5008120;28;20329;-65
2023/03/28 00:55:25;;;;;;;3.65;2.70;;;2.90;99.90;;;;;;5012145;28;20176;-65
2023/03/28 00:57:51;;;;;;;3.35;2.60;;;2.60;99.90;;;;;;5010021;28;20661;-65
2023/03/28 01:00:19;;;;;;;3.78;2.15;;;2.50;99.90;;;;;;5014953;28;20229;-65
2023/03/28 01:02:51;;;;;;;5.68;2.20;;;2.60;99.90;;;;;;5013019;28;20227;-65
2023/03/28 01:05:23;;;;;;;2.88;2.45;;;2.30;99.90;;;;;;5011076;28;20273;-65
2023/03/28 01:07:52;;;;;;;2.90;2.60;;;2.90;99.90;;;;;;5009710;28;20246;-65
2023/03/28 01:10:19;;;;;;;3.10;2.20;;;2.60;99.90;;;;;;5025836;28;20209;-65
2023/03/28 01:12:45;;;;;;;2.80;2.60;;;2.80;99.90;;;;;;5017010;28;20196;-65
2023/03/28 01:15:11;;;;;;;9.07;2.75;;;3.10;99.90;;;;;;5012117;28;20181;-65
2023/03/28 01:17:37;;;;;;;2.90;2.70;;;2.20;99.90;;;;;;5011483;28;20263;-65
2023/03/28 01:20:31;;;;;;;3.42;3.00;;;2.70;99.90;;;;;;5010162;28;20447;-65
2023/03/28 01:23:06;;;;;;;2.58;2.15;;;2.50;99.90;;;;;;5038676;28;20200;-65
2023/03/28 01:25:50;;;;;;;3.33;2.88;;;2.70;99.90;;;;;;5015177;28;20326;-65
2023/03/28 01:28:53;;;;;;;3.65;2.70;;;2.80;99.90;;;;;;5010959;28;20845;-65
2023/03/28 01:31:37;;;;;;;2.30;2.10;;;2.70;99.90;;;;;;5011157;28;20270;-65
2023/03/28 01:34:41;;;;;;;4.40;3.00;;;2.40;99.90;;;;;;5030344;28;20190;-65
2023/03/28 01:37:13;;;;;;;4.47;2.30;;;2.80;99.90;;;;;;5006778;28;20193;-65
2023/03/28 01:40:01;;;;;;;3.80;2.50;;;2.90;99.90;;;;;;5011484;28;20192;-65
2023/03/28 01:42:38;;;;;;;4.07;2.45;;;2.80;99.90;;;;;;5010087;28;20235;-65
2023/03/28 01:45:18;;;;;;;4.25;2.80;;;2.70;99.90;;;;;;5015487;28;20255;-65
2023/03/28 01:48:01;;;;;;;3.03;2.55;;;2.90;99.90;;;;;;5013785;28;20267;-65
2023/03/28 01:50:37;;;;;;;2.65;2.33;;;2.60;99.90;;;;;;5039428;28;20216;-65
2023/03/28 01:53:17;;;;;;;6.15;2.80;;;2.70;99.90;;;;;;5009037;28;20283;-65
2023/03/28 01:56:03;;;;;;;3.80;3.00;;;2.60;99.90;;;;;;5012228;28;20736;-65
2023/03/28 01:58:41;;;;;;;4.07;3.30;;;2.80;99.90;;;;;;5031744;28;20206;-65
2023/03/28 02:01:21;;;;;;;4.07;2.78;;;2.80;99.90;;;;;;5011526;28;20930;-65
2023/03/28 02:03:51;;;;;;;4.47;2.50;;;2.80;99.90;;;;;;5010533;28;20238;-65
2023/03/28 02:06:20;;;;;;;4.55;2.80;;;2.90;99.90;;;;;;5009814;28;20189;-65
2023/03/28 02:08:48;;;;;;;2.95;2.60;;;3.00;99.90;;;;;;5010651;28;20187;-65
2023/03/28 02:11:13;;;;;;;5.47;2.70;;;2.70;99.90;;;;;;5009393;28;20221;-65
2023/03/28 02:13:44;;;;;;;3.77;2.73;;;2.80;99.90;;;;;;5010803;28;20188;-65
2023/03/28 02:16:12;;;;;;;2.70;2.50;;;2.90;99.90;;;;;;5013903;28;21251;-65
2023/03/28 02:18:42;;;;;;;3.30;3.00;;;2.90;99.90;;;;;;5014220;28;20193;-65
2023/03/28 02:21:17;;;;;;;3.35;2.17;;;2.60;99.90;;;;;;5003475;28;20672;-65
2023/03/28 02:23:47;;;;;;;3.65;2.53;;;2.90;99.90;;;;;;5014004;28;20212;-65
2023/03/28 02:26:13;;;;;;;4.38;2.60;;;2.70;99.90;;;;;;5007177;28;20190;-65
2023/03/28 02:28:41;;;;;;;4.72;2.90;;;2.60;99.90;;;;;;5007752;28;20218;-65
2023/03/28 02:31:08;;;;;;;3.58;3.28;;;2.10;99.90;;;;;;5010482;28;20215;-65
2023/03/28 02:33:41;;;;;;;3.28;2.50;;;2.60;99.90;;;;;;5008055;28;20191;-65
2023/03/28 02:36:21;;;;;;;4.95;2.60;;;2.50;99.90;;;;;;5009449;28;20292;-65
2023/03/28 02:38:58;;;;;;;2.67;2.47;;;2.50;99.90;;;;;;5009884;28;20196;-65
2023/03/28 02:41:36;;;;;;;4.93;2.70;;;2.60;99.90;;;;;;5000965;28;20222;-65
2023/03/28 02:44:12;;;;;;;3.63;2.80;;;2.50;99.90;;;;;;5006210;28;20184;-65
2023/03/28 02:46:58;;;;;;;4.53;2.65;;;1.90;99.90;;;;;;5009883;28;20241;-65
2023/03/28 02:49:32;;;;;;;3.35;2.42;;;2.30;99.90;;;;;;5007554;28;20211;-65
2023/03/28 02:52:20;;;;;;;3.15;2.53;;;2.00;99.90;;;;;;5010619;28;20241;-65
2023/03/28 02:54:58;;;;;;;4.25;2.30;;;2.50;99.90;;;;;;5010589;28;20171;-65
2023/03/28 02:57:50;;;;;;;7.45;2.47;;;2.90;99.90;;;;;;5007000;28;20529;-65
2023/03/28 03:00:18;;;;;;;2.55;2.35;;;2.30;99.90;;;;;;5005066;28;20199;-65
2023/03/28 03:02:48;;;;;;;5.22;3.15;;;2.40;99.90;;;;;;5010092;28;20183;-65
2023/03/28 03:05:14;;;;;;;2.50;2.30;;;2.20;99.90;;;;;;5005422;28;20190;-65
2023/03/28 03:07:41;;;;;;;4.65;2.50;;;2.20;99.90;;;;;;5008841;28;20604;-65
2023/03/28 03:10:10;;;;;;;2.90;2.65;;;2.10;99.90;;;;;;5009713;28;20565;-65
2023/03/28 03:12:36;;;;;;;3.22;2.92;;;2.30;99.90;;;;;;5008125;28;20187;-65
2023/03/28 03:15:03;;;;;;;3.17;2.88;;;2.20;99.90;;;;;;5008099;28;20171;-65
2023/03/28 03:17:29;;;;;;;3.75;2.63;;;2.00;99.90;;;;;;5010668;28;20229;-65
2023/03/28 03:19:55;;;;;;;3.40;3.05;;;2.10;99.90;;;;;;5010918;28;20187;-65
2023/03/28 03:22:22;;;;;;;2.97;2.70;;;1.70;99.90;;;;;;5007418;28;20225;-65
2023/03/28 03:24:49;;;;;;;4.72;2.92;;;2.20;99.90;;;;;;5009448;28;20454;-65
2023/03/28 03:27:19;;;;;;;3.38;2.40;;;2.10;99.90;;;;;;5007284;28;20185;-65
2023/03/28 03:29:47;;;;;;;4.60;3.25;;;2.20;99.90;;;;;;5012994;28;20241;-65
2023/03/28 03:32:14;;;;;;;3.75;2.90;;;2.00;99.90;;;;;;5007441;28;20217;-65
2023/03/28 03:34:40;;;;;;;3.17;2.88;;;1.50;99.90;;;;;;5008058;28;20231;-65
2023/03/28 03:37:07;;;;;;;4.72;2.90;;;2.50;99.90;;;;;;5008589;28;20672;-65
2023/03/28 03:39:35;;;;;;;4.90;2.72;;;2.20;99.90;;;;;;5007463;28;20187;-65
2023/03/28 03:42:02;;;;;;;3.53;2.70;;;2.10;99.90;;;;;;5006658;28;20905;-68
2023/03/28 03:44:27;;;;;;;4.93;2.70;;;2.50;99.90;;;;;;5009009;28;20195;-65
2023/03/28 03:46:53;;;;;;;3.80;2.77;;;2.20;99.90;;;;;;5007983;28;20183;-65
2023/03/28 03:49:19;;;;;;;5.30;3.10;;;2.10;99.90;;;;;;5012185;28;20202;-66
2023/03/28 03:51:44;;;;;;;3.80;2.90;;;1.80;99.90;;;;;;5008600;28;20227;-66
2023/03/28 03:54:10;;;;;;;7.40;3.27;;;1.90;99.90;;;;;;5017342;28;20174;-66
2023/03/28 03:56:36;;;;;;;7.85;3.58;;;2.10;99.90;;;;;;5007271;28;20186;-66
2023/03/28 03:59:02;;;;;;;5.47;3.40;;;1.80;99.90;;;;;;5012318;28;20175;-66
2023/03/28 04:01:28;;;;;;;7.77;3.63;;;1.80;99.90;;;;;;5008583;28;20221;-66
2023/03/28 04:03:55;;;;;;;3.72;2.70;;;1.70;99.90;;;;;;5008276;28;20438;-66
2023/03/28 04:06:21;;;;;;;6.97;3.85;;;1.90;99.90;;;;;;5008994;28;20190;-64
2023/03/28 04:08:47;;;;;;;3.33;2.95;;;2.10;99.90;;;;;;5009727;28;20183;-64
2023/03/28 04:11:12;;;;;;;5.97;3.70;;;2.00;99.90;;;;;;5006926;28;20358;-66
2023/03/28 04:13:38;;;;;;;3.20;2.87;;;1.80;99.90;;;;;;5008915;28;20667;-65
2023/03/28 04:16:04;;;;;;;5.20;3.17;;;1.90;99.90;;;;;;5008487;28;20186;-66
2023/03/28 04:18:30;;;;;;;5.25;3.40;;;1.70;99.90;;;;;;5006214;28;20171;-65
2023/03/28 04:21:01;;;;;;;4.60;3.80;;;1.90;99.90;;;;;;5008548;28;20221;-65
2023/03/28 04:23:27;;;;;;;3.60;3.10;;;1.20;99.90;;;;;;5008721;28;20175;-65
2023/03/28 04:25:56;;;;;;;6.65;3.28;;;2.00;99.90;;;;;;5004878;28;20190;-65
2023/03/28 04:28:30;;;;;;;3.20;2.45;;;1.70;99.90;;;;;;5008385;28;20217;-65
2023/03/28 04:30:59;;;;;;;6.57;4.15;;;1.70;99.90;;;;;;5008225;28;20218;-65
2023/03/28 04:33:26;;;;;;;6.82;4.00;;;1.90;99.90;;;;;;5008651;28;20672;-65
2023/03/28 04:35:58;;;;;;;3.15;2.80;;;2.20;99.90;;;;;;5007451;28;20194;-65
2023/03/28 04:38:26;;;;;;;6.18;3.80;;;2.20;99.90;;;;;;5008088;28;20187;-65
2023/03/28 04:40:56;;;;;;;4.55;2.92;;;2.10;99.90;;;;;;5006971;28;20657;-65
2023/03/28 04:43:26;;;;;;;5.70;2.95;;;2.00;99.90;;;;;;5006447;28;20180;-65
2023/03/28 04:45:55;;;;;;;3.85;3.30;;;1.60;99.90;;;;;;5005313;28;20179;-65
2023/03/28 04:48:22;;;;;;;6.00;2.97;;;2.10;99.90;;;;;;5005609;28;20195;-65
2023/03/28 04:50:48;;;;;;;5.10;3.45;;;2.10;99.90;;;;;;5005584;28;20648;-65
2023/03/28 04:53:15;;;;;;;3.80;3.08;;;2.60;99.90;;;;;;5000090;28;20190;-65
2023/03/28 04:55:42;;;;;;;7.28;3.50;;;2.20;99.90;;;;;;5006505;28;20191;-65
2023/03/28 04:58:09;;;;;;;5.68;3.03;;;2.20;99.90;;;;;;5005900;28;20175;-65
2023/03/28 05:00:35;;;;;;;6.30;3.13;;;2.10;99.90;;;;;;5008110;28;20214;-65
2023/03/28 05:03:05;;;;;;;4.00;3.60;;;2.40;99.90;;;;;;5011711;28;20227;-67
2023/03/28 05:05:31;;;;;;;3.85;3.45;;;2.30;99.90;;;;;;5006999;28;20187;-65
2023/03/28 05:07:57;;;;;;;3.80;3.43;;;2.40;99.90;;;;;;5010819;28;20209;-66
2023/03/28 05:10:23;;;;;;;5.03;3.25;;;2.00;99.90;;;;;;5009789;28;20482;-65
2023/03/28 05:12:49;;;;;;;5.33;3.53;;;2.20;99.90;;;;;;5011251;28;20195;-66
2023/03/28 05:15:15;;;;;;;4.15;3.08;;;2.00;99.90;;;;;;5010519;28;20187;-65
2023/03/28 05:17:41;;;;;;;4.77;3.27;;;1.90;99.90;;;;;;5026708;28;20190;-66
2023/03/28 05:20:08;;;;;;;3.03;2.77;;;1.50;99.90;;;;;;5013974;28;20186;-65
2023/03/28 05:22:35;;;;;;;4.10;3.70;;;1.90;99.90;;;;;;5008178;28;20233;-65
2023/03/28 05:25:01;;;;;;;6.22;3.78;;;2.60;99.90;;;;;;5011697;28;20552;-65
2023/03/28 05:27:26;;;;;;;7.00;3.83;;;2.10;99.90;;;;;;5009453;28;20265;-65
2023/03/28 05:29:52;;;;;;;6.57;3.40;;;2.20;99.90;;;;;;5006752;28;20677;-66
2023/03/28 05:32:18;;;;;;;10.73;4.23;;;2.00;99.90;;;;;;5009836;28;20461;-66
2023/03/28 05:34:44;;;;;;;4.13;3.53;;;2.10;99.90;;;;;;5009954;28;20179;-66
2023/03/28 05:37:09;;;;;;;6.73;4.20;;;2.00;99.90;;;;;;5010388;28;20556;-67
2023/03/28 05:39:35;;;;;;;7.50;3.60;;;2.20;99.90;;;;;;5010043;28;20462;-66
2023/03/28 05:42:01;;;;;;;4.63;4.17;;;1.90;99.90;;;;;;5009245;28;20207;-67
2023/03/28 05:44:26;;;;;;;9.73;3.50;;;2.00;99.90;;;;;;5009947;28;20192;-70
2023/03/28 05:46:52;;;;;;;9.33;4.87;;;1.90;99.90;;;;;;5006024;28;20179;-66
2023/03/28 05:49:17;;;;;;;5.10;4.33;;;2.20;99.90;;;;;;5009575;28;20203;-66
2023/03/28 05:51:43;;;;;;;6.40;4.13;;;2.10;99.90;;;;;;5009633;28;20581;-66
2023/03/28 05:54:09;;;;;;;5.50;4.00;;;2.00;99.90;;;;;;5013123;28;20188;-68
2023/03/28 05:56:35;;;;;;;4.77;3.60;;;2.20;99.90;;;;;;5013338;28;20652;-68
2023/03/28 05:59:01;;;;;;;6.75;3.45;;;2.20;99.90;;;;;;5013217;28;20434;-66
2023/03/28 06:01:27;;;;;;;4.70;3.78;;;2.20;99.90;;;;;;5010220;28;20206;-66
2023/03/28 06:03:54;;;;;;;16.10;5.20;;;2.30;99.90;;;;;;5011803;28;20183;-66
2023/03/28 06:06:20;;;;;;;5.32;4.05;;;2.70;99.90;;;;;;5010345;28;20652;-67
2023/03/28 06:08:46;;;;;;;6.00;5.45;;;2.20;99.90;;;;;;5006854;28;20645;-67
2023/03/28 06:11:12;;;;;;;11.60;4.33;;;2.20;99.90;;;;;;5005571;28;20218;-68
2023/03/28 06:13:38;;;;;;;8.35;5.30;;;2.40;99.90;;;;;;5007584;28;20246;-69
2023/03/28 06:16:04;;;;;;;7.00;5.10;;;2.00;99.90;;;;;;5006308;28;20263;-65
2023/03/28 06:18:30;;;;;;;4.10;3.70;;;2.60;99.90;;;;;;5008633;28;20211;-69
2023/03/28 06:20:56;;;;;;;6.07;4.03;;;2.50;99.90;;;;;;5008936;28;20225;-68
2023/03/28 06:23:22;;;;;;;5.50;4.50;;;2.60;99.90;;;;;;5008252;28;20183;-70
2023/03/28 06:25:48;;;;;;;7.10;4.82;;;2.70;99.90;;;;;;5008227;28;20182;-69
2023/03/28 06:28:14;;;;;;;5.25;4.00;;;2.50;99.90;;;;;;5012443;28;20179;-69
2023/03/28 06:30:40;;;;;;;10.55;5.03;;;2.60;99.90;;;;;;5009920;28;20218;-67
2023/03/28 06:33:06;;;;;;;6.30;4.23;;;2.80;99.90;;;;;;5008929;28;20558;-69
2023/03/28 06:35:32;;;;;;;10.57;4.10;;;2.90;99.90;;;;;;5007885;28;20258;-66
2023/03/28 06:37:58;;;;;;;6.93;3.75;;;3.20;99.90;;;;;;5009400;28;20279;-65
2023/03/28 06:40:25;;;;;;;9.13;4.33;;;4.00;99.90;;;;;;5005681;28;20280;-70
2023/03/28 06:42:51;;;;;;;6.22;4.05;;;4.20;99.90;;;;;;5009075;28;20970;-66
2023/03/28 06:45:16;;;;;;;7.18;3.83;;;4.20;99.90;;;;;;5004462;28;20220;-67
2023/03/28 06:47:44;;;;;;;5.30;3.70;;;4.30;99.90;;;;;;5007953;28;20282;-67
2023/03/28 06:50:10;;;;;;;4.47;3.20;;;5.30;99.90;;;;;;5006312;28;20201;-67
2023/03/28 06:52:36;;;;;;;6.10;2.95;;;4.80;99.90;;;;;;5008479;28;20254;-66
2023/03/28 06:55:02;;;;;;;5.20;3.40;;;6.00;99.90;;;;;;5007356;28;20193;-67
2023/03/28 06:57:28;;;;;;;4.47;3.60;;;6.00;99.90;;;;;;5005590;28;20236;-68
2023/03/28 06:59:54;;;;;;;3.90;3.20;;;6.80;99.60;;;;;;5008813;28;20598;-68
2023/03/28 07:02:19;;;;;;;5.33;3.77;;;8.70;98.00;;;;;;5005976;28;20213;-66
2023/03/28 07:04:45;;;;;;;5.17;2.53;;;9.00;95.00;;;;;;5010740;28;20301;-66
2023/03/28 07:07:11;;;;;;;4.70;2.60;;;10.00;91.90;;;;;;5010859;28;20188;-66
2023/03/28 07:09:36;;;;;;;5.70;3.13;;;11.50;89.80;;;;;;5006275;28;20253;-67
2023/03/28 07:12:03;;;;;;;4.57;2.63;;;12.00;83.30;;;;;;5005296;28;20214;-68
2023/03/28 07:14:29;;;;;;;4.10;2.60;;;13.80;78.60;;;;;;5008107;28;20256;-65
2023/03/28 07:16:55;;;;;;;5.53;2.42;;;15.40;72.60;;;;;;5007389;28;20186;-66
2023/03/28 07:19:23;;;;;;;3.43;2.67;;;17.00;66.80;;;;;;5006388;28;20183;-65
2023/03/28 07:21:49;;;;;;;6.32;2.50;;;16.30;59.50;;;;;;5007536;28;20665;-66
2023/03/28 07:24:15;;;;;;;7.13;2.43;;;15.40;59.40;;;;;;5004723;28;20191;-65
2023/03/28 07:26:40;;;;;;;5.00;2.53;;;16.30;61.10;;;;;;5004716;28;20700;-65
2023/03/28 07:29:06;;;;;;;2.40;2.30;;;15.50;59.30;;;;;;5008559;28;20178;-65
2023/03/28 07:31:32;;;;;;;3.30;2.13;;;14.60;58.70;;;;;;5008480;28;20245;-65
2023/03/28 07:33:58;;;;;;;5.17;2.70;;;16.60;59.40;;;;;;5008830;28;20710;-65
2023/03/28 07:36:26;;;;;;;5.60;2.37;;;17.80;56.90;;;;;;5007546;28;20602;-65
2023/03/28 07:38:52;;;;;;;4.00;2.47;;;17.40;54.50;;;;;;5008742;28;20469;-66
2023/03/28 07:41:18;;;;;;;4.00;2.80;;;17.10;53.90;;;;;;5006925;28;20241;-65
2023/03/28 07:43:43;;;;;;;3.90;2.00;;;16.60;53.20;;;;;;5005502;28;20976;-65
2023/03/28 07:46:12;;;;;;;2.60;1.97;;;17.10;54.90;;;;;;5008640;28;20437;-66
2023/03/28 07:48:39;;;;;;;4.80;2.28;;;16.40;54.60;;;;;;5010103;28;21015;-66
2023/03/28 07:51:07;;;;;;;3.75;2.30;;;18.10;53.80;;;;;;5009117;28;20580;-66
2023/03/28 07:53:33;;;;;;;4.32;2.67;;;17.80;52.20;;;;;;5008597;28;20180;-66
2023/03/28 07:55:59;;;;;;;3.83;2.25;;;16.90;52.10;;;;;;5007142;28;20209;-66
2023/03/28 07:58:25;;;;;;;2.92;2.20;;;16.70;53.70;;;;;;5010044;28;20865;-66
2023/03/28 08:00:51;;;;;;;4.73;2.53;;;17.60;51.70;;;;;;5008088;28;20217;-67
2023/03/28 08:03:17;;;;;;;3.00;2.10;;;17.00;51.60;;;;;;5008039;28;20248;-66
2023/03/28 08:05:48;;;;;;;5.20;2.20;;;16.70;52.40;;;;;;5004030;28;20198;-68
2023/03/28 08:08:14;;;;;;;4.63;4.20;;;17.50;51.20;;;;;;5009390;28;20651;-65
2023/03/28 08:10:39;;;;;;;3.67;2.63;;;17.30;50.10;;;;;;5008595;28;20233;-65
2023/03/28 08:13:05;;;;;;;4.23;2.53;;;16.60;51.30;;;;;;5009460;28;20182;-66
2023/03/28 08:15:31;;;;;;;3.63;2.30;;;15.70;51.90;;;;;;5010824;28;20527;-66
2023/03/28 08:17:57;;;;;;;5.68;3.08;;;15.70;52.80;;;;;;4995948;28;20446;-68
2023/03/28 08:20:22;;;;;;;2.50;1.97;;;16.00;51.90;;;;;;5003914;28;20274;-69
2023/03/28 08:22:48;;;;;;;3.73;1.97;;;16.40;50.90;;;;;;5007587;28;20183;-68
2023/03/28 08:25:14;;;;;;;1.93;1.53;;;15.80;50.00;;;;;;5001731;28;20221;-67
2023/03/28 08:27:39;;;;;;;1.57;1.47;;;15.00;48.60;;;;;;5005656;28;20221;-66
2023/03/28 08:30:06;;;;;;;5.50;3.10;;;15.30;47.80;;;;;;5006670;28;20210;-66
2023/03/28 08:32:32;;;;;;;3.67;2.53;;;15.30;48.20;;;;;;5010284;28;20213;-65
2023/03/28 08:35:01;;;;;;;3.47;2.23;;;14.10;50.60;;;;;;5005054;28;20180;-65
2023/03/28 08:37:28;;;;;;;3.35;1.92;;;13.90;53.20;;;;;;5006232;28;20187;-65
2023/03/28 08:39:54;;;;;;;4.47;2.00;;;14.30;53.50;;;;;;5011107;28;20703;-66
2023/03/28 08:42:55;;;;;;;2.25;1.70;;;14.90;51.10;;;;;;5010953;28;20218;-65
2023/03/28 08:45:24;;;;;;;3.55;1.88;;;15.00;49.50;;;;;;5009662;28;20805;-64
2023/03/28 08:48:16;;;;;;;3.55;1.95;;;15.30;49.70;;;;;;5009639;28;20198;-65
2023/03/28 08:51:04;;;;;;;3.25;2.38;;;15.80;48.70;;;;;;5007615;28;20671;-65
2023/03/28 08:53:39;;;;;;;3.55;1.80;;;13.80;50.50;;;;;;5009722;28;20209;-72
2023/03/28 08:56:07;;;;;;;2.40;1.35;;;13.10;51.70;;;;;;5010367;28;20246;-68
2023/03/28 08:59:04;;;;;;;3.75;2.05;;;12.50;53.10;;;;;;5011373;28;20179;-68
2023/03/28 09:01:31;;;;;;;2.67;1.58;;;13.00;53.20;;;;;;5007885;28;20207;-68
2023/03/28 09:04:00;;;;;;;6.00;1.95;;;14.00;53.10;;;;;;5025549;28;20193;-69
2023/03/28 09:06:27;;;;;;;3.30;1.70;;;14.30;51.60;;;;;;5009823;28;20186;-70
2023/03/28 09:09:07;;;;;;;4.60;2.25;;;13.80;50.20;;;;;;5013517;28;20294;-69
2023/03/28 09:11:47;;;;;;;2.22;1.83;;;13.30;51.20;;;;;;5009439;28;20218;-68
2023/03/28 09:14:35;;;;;;;2.88;1.63;;;13.20;52.60;;;;;;5012856;28;20189;-69
2023/03/28 09:17:22;;;;;;;3.17;2.03;;;13.00;51.60;;;;;;5009642;28;20257;-68
2023/03/28 09:20:13;;;;;;;2.45;1.73;;;13.70;53.30;;;;;;5008306;28;20865;-68
2023/03/28 09:22:51;;;;;;;3.65;1.73;;;13.50;51.30;;;;;;5010656;28;20266;-68
2023/03/28 09:25:35;;;;;;;5.75;2.13;;;12.90;51.20;;;;;;5007009;28;20247;-71
2023/03/28 09:28:08;;;;;;;3.75;1.90;;;12.70;51.80;;;;;;5022369;28;20273;-71
2023/03/28 09:30:39;;;;;;;4.47;1.70;;;12.00;49.90;;;;;;5008659;28;20206;-71
2023/03/28 09:33:13;;;;;;;1.83;1.50;;;12.00;52.20;;;;;;5009795;28;20856;-68
2023/03/28 09:35:40;;;;;;;2.05;1.40;;;11.80;51.90;;;;;;5006614;28;20191;-67
2023/03/28 09:38:23;;;;;;;3.05;2.00;;;11.80;50.10;;;;;;5005802;28;20229;-67
2023/03/28 09:40:53;;;;;;;3.45;1.70;;;11.30;51.80;;;;;;5008290;28;20202;-67
2023/03/28 09:43:37;;;;;;;2.97;1.80;;;11.10;51.90;;;;;;5009455;28;20185;-67
2023/03/28 09:46:12;;;;;;;5.63;2.25;;;10.90;52.20;;;;;;5007469;28;20196;-67
2023/03/28 09:48:39;;;;;;;5.55;1.58;;;10.40;53.00;;;;;;5009121;28;20227;-67
2023/03/28 09:51:11;;;;;;;5.68;1.98;;;9.90;54.40;;;;;;5012348;28;20219;-67
2023/03/28 09:53:37;;;;;;;11.88;6.35;;;9.80;53.90;;;;;;5010919;28;20243;-67
2023/03/28 09:56:26;;;;;;;4.80;1.60;;;9.60;52.80;;;;;;5002021;28;20940;-69
2023/03/28 09:59:03;;;;;;;1.70;1.60;;;9.90;54.00;;;;;;5009573;28;20209;-69
2023/03/28 10:01:39;;;;;;;3.00;2.30;;;11.30;52.60;;;;;;5009137;28;20302;-69
2023/03/28 10:04:28;;;;;;;3.88;1.60;;;12.70;51.00;;;;;;5007553;28;20185;-69
2023/03/28 10:07:09;;;;;;;2.55;1.77;;;13.90;47.50;;;;;;5005966;28;20209;-70
2023/03/28 10:09:46;;;;;;;1.98;1.40;;;14.40;46.50;;;;;;5008077;28;20206;-70
2023/03/28 10:12:34;;;;;;;2.00;1.75;;;15.80;45.10;;;;;;5009564;28;20199;-70
2023/03/28 10:15:00;;;;;;;4.10;2.25;;;17.20;42.30;;;;;;5010119;28;20791;-70
2023/03/28 10:17:32;;;;;;;3.10;1.53;;;17.70;41.70;;;;;;5007473;28;20182;-70
2023/03/28 10:20:01;;;;;;;2.85;1.52;;;16.20;39.90;;;;;;5009202;28;20433;-68
2023/03/28 10:22:31;;;;;;;1.88;1.60;;;15.50;41.10;;;;;;5008652;28;20206;-69
2023/03/28 10:24:57;;;;;;;2.30;1.60;;;14.70;42.90;;;;;;5009015;28;20219;-68
2023/03/28 10:27:34;;;;;;;3.58;1.92;;;15.40;42.80;;;;;;5008130;28;20191;-70
2023/03/28 10:30:28;;;;;;;2.70;1.98;;;14.70;43.10;;;;;;5008237;28;20185;-70
2023/03/28 10:33:15;;;;;;;4.95;2.33;;;15.20;44.50;;;;;;5007514;28;20222;-70
2023/03/28 10:35:58;;;;;;;2.25;2.00;;;15.70;44.10;;;;;;5004709;28;20191;-68
2023/03/28 10:38:30;;;;;;;4.68;1.90;;;15.60;44.60;;;;;;5007774;28;20282;-68
2023/03/28 10:41:06;;;;;;;2.78;2.00;;;15.30;44.10;;;;;;5004150;28;20252;-71
2023/03/28 10:43:40;;;;;;;2.45;1.85;;;15.40;43.90;;;;;;5006967;28;20504;-68
2023/03/28 10:46:31;;;;;;;2.70;1.83;;;15.10;43.90;;;;;;5006693;28;20503;-67
2023/03/28 10:49:04;;;;;;;2.38;1.60;;;15.40;43.30;;;;;;5007667;28;20253;-67
2023/03/28 10:51:31;;;;;;;2.55;1.70;;;14.00;43.70;;;;;;5006198;28;20219;-69
2023/03/28 10:54:06;;;;;;;3.55;1.98;;;14.40;45.30;;;;;;5007726;28;20249;-71
2023/03/28 10:56:37;;;;;;;4.70;2.97;;;14.40;46.40;;;;;;5006375;28;20257;-71
2023/03/28 10:59:23;;;;;;;13.57;12.30;;;14.30;47.50;;;;;;5006312;28;20648;-70
2023/03/28 11:02:03;;;;;;;3.75;2.20;;;13.90;45.80;;;;;;5004564;28;20282;-70
2023/03/28 11:05:07;;;;;;;3.30;1.90;;;14.30;45.60;;;;;;5001446;28;20266;-69
2023/03/28 11:07:48;;;;;;;1.80;1.70;;;14.90;46.70;;;;;;4992380;28;20196;-70
2023/03/28 11:10:21;;;;;;;2.85;2.00;;;14.90;43.60;;;;;;4984319;28;20233;-71
2023/03/28 11:12:56;;;;;;;1.90;1.65;;;14.80;43.20;;;;;;4995913;28;20195;-69
2023/03/28 11:15:25;;;;;;;1.95;1.75;;;14.20;44.30;;;;;;5007016;28;20183;-72
2023/03/28 11:18:21;;;;;;;2.55;2.22;;;14.40;45.40;;;;;;5007309;28;20683;-66
2023/03/28 11:21:02;;;;;;;2.95;2.35;;;15.00;44.00;;;;;;5003045;28;20206;-68
2023/03/28 11:23:32;;;;;;;3.55;1.80;;;14.80;43.20;;;;;;5004302;28;20193;-72
2023/03/28 11:26:08;;;;;;;2.63;2.20;;;14.70;44.10;;;;;;5005639;28;20273;-68
2023/03/28 11:28:55;;;;;;;2.65;1.90;;;15.20;44.40;;;;;;5035458;28;20206;-69
2023/03/28 11:31:34;;;;;;;4.13;2.20;;;15.40;43.20;;;;;;5007865;28;20583;-69
2023/03/28 11:34:25;;;;;;;2.03;1.83;;;15.70;43.60;;;;;;5003636;28;20633;-70
2023/03/28 11:37:18;;;;;;;2.72;2.00;;;15.50;43.70;;;;;;5010628;28;20183;-70
2023/03/28 11:39:47;;;;;;;2.95;1.85;;;15.50;44.40;;;;;;5008559;28;20691;-71
2023/03/28 11:42:29;;;;;;;3.20;2.30;;;16.10;42.70;;;;;;5002757;28;20453;-65
2023/03/28 11:44:58;;;;;;;2.55;1.80;;;15.80;41.50;;;;;;5007642;28;20174;-65
2023/03/28 11:47:36;;;;;;;4.82;2.35;;;15.80;42.00;;;;;;5006163;28;20190;-65
2023/03/28 11:50:06;;;;;;;2.55;1.70;;;15.30;42.50;;;;;;5004594;28;20228;-69
2023/03/28 11:52:39;;;;;;;3.53;2.33;;;14.60;43.30;;;;;;5006976;28;20430;-69
2023/03/28 11:55:22;;;;;;;4.18;2.95;;;14.40;44.80;;;;;;5012202;28;20240;-69
2023/03/28 11:58:23;;;;;;;2.53;2.33;;;14.00;45.00;;;;;;5007470;28;20170;-66
2023/03/28 12:00:57;;;;;;;4.03;2.30;;;13.50;46.10;;;;;;5007907;28;20223;-65
2023/03/28 12:03:30;;;;;;;2.75;2.13;;;14.00;47.50;;;;;;5003597;28;20296;-66
2023/03/28 12:06:04;;;;;;;2.10;1.90;;;14.30;45.80;;;;;;5005187;28;20277;-66
2023/03/28 12:08:49;;;;;;;2.63;2.10;;;14.00;45.70;;;;;;5011036;28;20185;-67
2023/03/28 12:11:25;;;;;;;3.25;2.25;;;14.10;46.40;;;;;;5006855;28;20211;-66
2023/03/28 12:13:53;;;;;;;1.80;1.70;;;13.60;45.80;;;;;;5011512;28;20206;-67
2023/03/28 12:16:30;;;;;;;3.80;1.90;;;13.40;46.00;;;;;;5012514;28;20178;-66
2023/03/28 12:19:02;;;;;;;3.67;2.22;;;12.90;46.60;;;;;;5012779;28;20182;-67
2023/03/28 12:21:42;;;;;;;2.38;2.13;;;12.70;47.50;;;;;;5026915;28;20295;-69
2023/03/28 12:24:40;;;;;;;3.05;2.17;;;13.00;47.90;;;;;;5012558;28;20205;-71
2023/03/28 12:27:49;;;;;;;2.28;1.90;;;12.70;47.80;;;;;;5003278;28;20662;-71
2023/03/28 12:30:24;;;;;;;2.20;1.98;;;12.50;48.30;;;;;;5011545;28;20194;-71
2023/03/28 12:33:15;;;;;;;2.30;2.10;;;12.40;48.70;;;;;;5011559;28;20179;-71
2023/03/28 12:35:56;;;;;;;2.97;1.88;;;12.30;48.50;;;;;;5007157;28;20198;-71
2023/03/28 12:38:28;;;;;;;3.25;2.10;;;12.20;49.20;;;;;;5010201;28;20565;-65
2023/03/28 12:41:02;;;;;;;2.47;2.03;;;12.30;49.70;;;;;;5008718;28;20202;-65
2023/03/28 12:44:01;;;;;;;3.10;2.30;;;12.60;49.10;;;;;;5011749;28;20190;-65
2023/03/28 12:46:45;;;;;;;2.75;2.00;;;12.30;49.10;;;;;;5006619;28;20194;-65
2023/03/28 12:49:33;;;;;;;2.70;1.80;;;12.40;52.10;;;;;;5006680;28;20217;-65
2023/03/28 12:52:02;;;;;;;2.47;2.28;;;12.40;50.40;;;;;;5012564;28;20230;-65
2023/03/28 12:54:32;;;;;;;5.03;2.55;;;12.30;49.50;;;;;;5011214;28;20195;-65
2023/03/28 12:57:14;;;;;;;3.08;2.00;;;12.30;49.00;;;;;;5009764;28;20183;-65
2023/03/28 12:59:40;;;;;;;1.90;1.80;;;12.50;49.50;;;;;;5011472;28;20274;-65
2023/03/28 13:02:39;;;;;;;3.43;2.33;;;12.30;49.00;;;;;;5011294;28;20277;-65
2023/03/28 13:05:21;;;;;;;2.65;2.00;;;12.20;49.80;;;;;;5009510;28;20532;-65
2023/03/28 13:07:56;;;;;;;3.40;2.20;;;12.10;49.40;;;;;;5037055;28;20190;-65
2023/03/28 13:10:46;;;;;;;2.10;1.80;;;12.30;50.10;;;;;;5006796;28;20234;-65
2023/03/28 13:13:20;;;;;;;4.78;2.10;;;12.10;50.20;;;;;;5012387;28;20187;-65
2023/03/28 13:16:15;;;;;;;2.85;2.20;;;12.30;50.10;;;;;;5007249;28;20260;-65
2023/03/28 13:19:10;;;;;;;3.92;2.55;;;11.80;49.70;;;;;;5009009;28;20209;-65